Spokane, Washington
Current Conditions -  °F | °C
As of 11:53 PM on Wednesday 17 Dec 2014 (Local Time) from KSFF Reporting Station
Overcast Overcast  
Wind Chill: 37°   Ceiling: 3900
Heat Index: 37°   Visibility: 10mi
Dew Point: 33°   Wind: 3mph
Humidity: 86%   Direction: 60°ENE
Pressure: 29.97"   Gusts: NA
Location:  47.66°N, 117.41°W
Report Text: KSFF 180753Z AUTO 06003KT 10SM FEW006 OVC039 03/01 A2997 RMK AO2 SLP160 T00280006 400500000
Loading
Personal Weather Stations






























Interactive Weather Map New forecast layout! Learn more

10-Day Weather Forecast

Advertisements
Track Severe Weather on mobile